createdAt,value
2016-12-07T00:00:52.681Z,480.27
2016-12-07T00:01:52.801Z,479.51
2016-12-07T00:02:52.606Z,478.44
2016-12-07T00:03:52.848Z,477.2
2016-12-07T00:04:52.805Z,476.97
2016-12-07T00:05:52.918Z,476.07
2016-12-07T00:06:52.670Z,480.46
2016-12-07T00:07:52.779Z,479.22
2016-12-07T00:08:52.751Z,479.66
2016-12-07T00:09:52.769Z,477.99
2016-12-07T00:10:52.700Z,475.66
2016-12-07T00:11:52.737Z,476.48
2016-12-07T00:12:52.665Z,479.43
2016-12-07T00:13:52.939Z,475.43
2016-12-07T00:14:52.691Z,474.17
2016-12-07T00:15:52.824Z,474.59
2016-12-07T00:16:52.671Z,476.02
2016-12-07T00:17:52.682Z,474.1
2016-12-07T00:18:52.780Z,473.94
2016-12-07T00:19:52.818Z,471.58
2016-12-07T00:20:52.665Z,473.88
2016-12-07T00:21:52.754Z,471.83
2016-12-07T00:22:52.733Z,470.52
2016-12-07T00:23:52.709Z,471.34
2016-12-07T00:24:52.747Z,471.14
2016-12-07T00:25:52.780Z,472.17
2016-12-07T00:26:52.725Z,469.05
2016-12-07T00:27:52.744Z,471.41
2016-12-07T00:28:52.634Z,470.46
2016-12-07T00:29:52.636Z,470.74
2016-12-07T00:30:52.779Z,470.81
2016-12-07T00:31:52.695Z,468.8
2016-12-07T00:32:52.693Z,471.4
2016-12-07T00:33:52.718Z,473.05
2016-12-07T00:34:52.702Z,472.56
2016-12-07T00:35:52.853Z,471.35
2016-12-07T00:36:52.676Z,470.42
2016-12-07T00:37:52.757Z,470.78
2016-12-07T00:38:52.653Z,472.49
2016-12-07T00:39:52.843Z,472.49
2016-12-07T00:40:52.714Z,470.52
2016-12-07T00:41:52.827Z,469.98
2016-12-07T00:42:55.292Z,472.91
2016-12-07T00:43:52.824Z,473.36
2016-12-07T00:44:52.736Z,473.46
2016-12-07T00:45:52.816Z,473.05
2016-12-07T00:46:52.684Z,473.81
2016-12-07T00:47:52.779Z,473.19
2016-12-07T00:48:52.696Z,472.11
2016-12-07T00:49:52.685Z,470.72
2016-12-07T00:50:52.640Z,472.34
2016-12-07T00:51:52.727Z,472.74
2016-12-07T00:52:52.697Z,472.96
2016-12-07T00:53:52.861Z,471.51
2016-12-07T00:54:52.621Z,471.19
2016-12-07T00:55:52.730Z,471.32
2016-12-07T00:56:52.637Z,471.51
2016-12-07T00:57:52.730Z,471.38
2016-12-07T00:58:52.722Z,470.31
2016-12-07T00:59:52.766Z,471.36
2016-12-07T01:00:53.006Z,471.54
2016-12-07T01:01:52.973Z,474.92
2016-12-07T01:02:52.673Z,474.68
2016-12-07T01:03:52.725Z,473.81
2016-12-07T01:04:52.685Z,472.6
2016-12-07T01:05:52.822Z,474.74
2016-12-07T01:06:52.688Z,473.04
2016-12-07T01:07:52.766Z,470.98
2016-12-07T01:08:52.733Z,472.79
2016-12-07T01:09:52.718Z,471.62
2016-12-07T01:10:52.728Z,473.02
2016-12-07T01:11:52.909Z,472.47
2016-12-07T01:12:52.787Z,470.53
2016-12-07T01:13:52.849Z,475.18
2016-12-07T01:14:52.701Z,474.17
2016-12-07T01:15:52.818Z,476.14
2016-12-07T01:16:52.678Z,473.08
2016-12-07T01:17:52.788Z,473.49
2016-12-07T01:18:52.670Z,474.58
2016-12-07T01:19:52.722Z,474.1
2016-12-07T01:20:52.700Z,473.33
2016-12-07T01:21:52.802Z,473.53
2016-12-07T01:22:52.643Z,473.58
2016-12-07T01:23:52.730Z,472.95
2016-12-07T01:24:52.634Z,472.56
2016-12-07T01:25:52.755Z,470.37
2016-12-07T01:26:52.666Z,472.12
2016-12-07T01:27:52.669Z,472.14
2016-12-07T01:28:52.663Z,471.46
2016-12-07T01:29:52.716Z,473.84
2016-12-07T01:30:52.684Z,473.75
2016-12-07T01:31:52.666Z,474.69
2016-12-07T01:32:52.654Z,471.4
2016-12-07T01:33:52.748Z,471.93
2016-12-07T01:34:52.662Z,468.37
2016-12-07T01:35:52.771Z,471.57
2016-12-07T01:36:52.694Z,469.18
2016-12-07T01:37:52.748Z,469.86
2016-12-07T01:38:52.639Z,467.98
2016-12-07T01:39:52.844Z,467.75
2016-12-07T01:40:52.691Z,468.41
2016-12-07T01:41:52.775Z,470.56
2016-12-07T01:42:52.702Z,473.47
2016-12-07T01:43:52.929Z,471.44
2016-12-07T01:44:52.696Z,471.21
2016-12-07T01:45:52.733Z,468.3
2016-12-07T01:46:52.668Z,464.91
2016-12-07T01:47:52.738Z,466.41
2016-12-07T01:48:52.671Z,467.88
2016-12-07T01:49:52.681Z,464.4
2016-12-07T01:50:52.751Z,464.56
2016-12-07T01:51:52.747Z,464.78
2016-12-07T01:52:52.655Z,466.74
2016-12-07T01:53:52.801Z,463.81
2016-12-07T01:54:52.747Z,461.29
2016-12-07T01:55:52.771Z,462.97
2016-12-07T01:56:52.783Z,463.02
2016-12-07T01:57:52.841Z,461.72
2016-12-07T01:58:52.715Z,462.58
2016-12-07T01:59:52.841Z,462.7
2016-12-07T02:00:52.691Z,461.19
2016-12-07T02:01:52.739Z,461.83
2016-12-07T02:02:52.666Z,463.08
2016-12-07T02:03:52.668Z,461.19
2016-12-07T02:04:52.713Z,458.93
2016-12-07T02:05:52.867Z,461.72
2016-12-07T02:06:52.674Z,460.87
2016-12-07T02:07:52.741Z,460.78
2016-12-07T02:08:52.748Z,457.47
2016-12-07T02:09:52.700Z,456.6
2016-12-07T02:10:52.703Z,454.7
2016-12-07T02:11:52.820Z,457.06
2016-12-07T02:12:52.709Z,454.9
2016-12-07T02:13:52.772Z,454.46
2016-12-07T02:14:52.737Z,453.21
2016-12-07T02:15:52.758Z,455.42
2016-12-07T02:16:52.775Z,456.22
2016-12-07T02:17:52.745Z,452.68
2016-12-07T02:18:52.771Z,451.49
2016-12-07T02:19:52.892Z,449.14
2016-12-07T02:20:52.780Z,447.82
2016-12-07T02:21:52.756Z,446.41
2016-12-07T02:22:52.748Z,446.29
2016-12-07T02:23:52.749Z,445.19
2016-12-07T02:24:52.688Z,442.44
2016-12-07T02:25:52.749Z,444.03
2016-12-07T02:26:52.727Z,444.12
2016-12-07T02:27:52.934Z,439.86
2016-12-07T02:28:52.727Z,441.69
2016-12-07T02:29:52.749Z,440.41
2016-12-07T02:30:52.777Z,439.7
2016-12-07T02:31:52.862Z,438.48
2016-12-07T02:32:52.742Z,438.75
2016-12-07T02:33:52.806Z,436.42
2016-12-07T02:34:52.744Z,436.62
2016-12-07T02:35:52.945Z,437.23
2016-12-07T02:36:52.754Z,434.46
2016-12-07T02:37:52.707Z,434.4
2016-12-07T02:38:52.812Z,437.11
2016-12-07T02:39:52.821Z,435.23
2016-12-07T02:40:52.793Z,433.49
2016-12-07T02:41:52.820Z,433.31
2016-12-07T02:42:52.723Z,435.49
2016-12-07T02:43:52.727Z,435.74
2016-12-07T02:44:52.792Z,434.97
2016-12-07T02:45:52.789Z,434.16
2016-12-07T02:46:52.777Z,432.86
2016-12-07T02:47:52.797Z,435.63
2016-12-07T02:48:52.762Z,436.57
2016-12-07T02:49:52.793Z,436.07
2016-12-07T02:50:52.741Z,434.69
2016-12-07T02:51:52.830Z,435.85
2016-12-07T02:52:52.747Z,437.06
2016-12-07T02:53:52.735Z,436.58
2016-12-07T02:54:52.780Z,436.8
2016-12-07T02:55:52.842Z,437.41
2016-12-07T02:56:52.726Z,439.25
2016-12-07T02:57:52.735Z,437.82
2016-12-07T02:58:52.777Z,439.29
2016-12-07T02:59:52.911Z,438.03
2016-12-07T03:00:52.785Z,439.32
2016-12-07T03:01:52.896Z,437.6
2016-12-07T03:02:52.767Z,438.6
2016-12-07T03:03:52.798Z,439.37
2016-12-07T03:04:52.767Z,439.41
2016-12-07T03:05:52.830Z,439.63
2016-12-07T03:06:52.789Z,442.86
2016-12-07T03:07:52.842Z,443.48
2016-12-07T03:08:52.773Z,442.87
2016-12-07T03:09:52.780Z,444.57
2016-12-07T03:10:52.790Z,442.64
2016-12-07T03:11:52.757Z,442.17
2016-12-07T03:12:52.734Z,443.33
2016-12-07T03:13:52.895Z,444.32
2016-12-07T03:14:52.788Z,442.02
2016-12-07T03:15:52.921Z,441.3
2016-12-07T03:16:52.830Z,440.93
2016-12-07T03:17:52.815Z,442.46
2016-12-07T03:18:52.794Z,441.26
2016-12-07T03:19:52.839Z,442.13
2016-12-07T03:20:52.809Z,442.08
2016-12-07T03:21:52.959Z,444.03
2016-12-07T03:22:52.780Z,442.78
2016-12-07T03:23:52.776Z,443.44
2016-12-07T03:24:52.768Z,445.58
2016-12-07T03:25:52.933Z,441.88
2016-12-07T03:26:52.787Z,445.09
2016-12-07T03:27:52.826Z,441.47
2016-12-07T03:28:52.813Z,444.18
2016-12-07T03:29:52.963Z,446.2
2016-12-07T03:30:52.860Z,443.87
2016-12-07T03:31:52.888Z,441.89
2016-12-07T03:32:52.794Z,444.67
2016-12-07T03:33:52.852Z,444.52
2016-12-07T03:34:52.819Z,442.81
2016-12-07T03:35:52.958Z,443.81
2016-12-07T03:36:52.948Z,443.48
2016-12-07T03:37:52.925Z,442.8
2016-12-07T03:38:52.782Z,443.63
2016-12-07T03:39:52.853Z,444.3
2016-12-07T03:40:52.815Z,443.03
2016-12-07T03:41:52.987Z,442.28
2016-12-07T03:42:52.803Z,439.91
2016-12-07T03:43:52.780Z,438.81
2016-12-07T03:44:52.851Z,439.75
2016-12-07T03:45:52.854Z,440.52
2016-12-07T03:46:52.813Z,443.04
2016-12-07T03:47:52.811Z,442.22
2016-12-07T03:48:52.824Z,443.88
2016-12-07T03:49:57.726Z,443.39
2016-12-07T03:50:52.842Z,444.36
2016-12-07T03:51:52.929Z,444.61
2016-12-07T03:52:52.810Z,445.57
2016-12-07T03:53:52.971Z,447.01
2016-12-07T03:54:52.843Z,448.67
2016-12-07T03:55:53.038Z,446.73
2016-12-07T03:56:52.907Z,446.46
2016-12-07T03:57:52.955Z,447.81
2016-12-07T03:58:52.840Z,448.19
2016-12-07T03:59:52.981Z,445.74
2016-12-07T04:00:52.848Z,446.52
2016-12-07T04:01:52.890Z,446.57
2016-12-07T04:02:52.870Z,447.53
2016-12-07T04:03:53.030Z,447.98
2016-12-07T04:04:52.862Z,446.05
2016-12-07T04:05:53.018Z,445.49
2016-12-07T04:06:52.897Z,447.99
2016-12-07T04:07:52.983Z,449.85
2016-12-07T04:08:52.851Z,450.09
2016-12-07T04:09:52.920Z,449.36
2016-12-07T04:10:52.844Z,449.79
2016-12-07T04:11:52.969Z,451.35
2016-12-07T04:12:52.873Z,450.01
2016-12-07T04:13:52.937Z,450.61
2016-12-07T04:14:52.812Z,452.95
2016-12-07T04:15:52.939Z,453.59
2016-12-07T04:16:52.823Z,451.92
2016-12-07T04:17:53.099Z,454.01
2016-12-07T04:18:52.898Z,452.42
2016-12-07T04:19:53.045Z,453.45
2016-12-07T04:20:52.860Z,455.97
2016-12-07T04:21:52.988Z,455.9
2016-12-07T04:22:52.945Z,455.6
2016-12-07T04:23:52.964Z,457.07
2016-12-07T04:24:52.883Z,457.29
2016-12-07T04:25:53.042Z,458.51
2016-12-07T04:26:52.941Z,455.99
2016-12-07T04:27:52.966Z,459.38
2016-12-07T04:28:52.873Z,456.59
2016-12-07T04:29:53.091Z,459.32
2016-12-07T04:30:52.959Z,458.45
2016-12-07T04:31:53.061Z,456.83
2016-12-07T04:32:52.966Z,458.74
2016-12-07T04:33:53.049Z,459.13
2016-12-07T04:34:52.921Z,459.47
2016-12-07T04:35:52.951Z,460.39
2016-12-07T04:36:52.967Z,461.43
2016-12-07T04:37:52.982Z,460.81
2016-12-07T04:38:52.943Z,463.4
2016-12-07T04:39:53.004Z,458.73
2016-12-07T04:40:52.886Z,457.53
2016-12-07T04:41:52.962Z,460.15
2016-12-07T04:42:52.884Z,459.34
2016-12-07T04:43:53.040Z,459.31
2016-12-07T04:44:53.893Z,459.23
2016-12-07T04:45:52.912Z,461.17
2016-12-07T04:46:52.915Z,460.9
2016-12-07T04:47:53.028Z,459.8
2016-12-07T04:48:52.885Z,459.87
2016-12-07T04:49:52.938Z,459.51
2016-12-07T04:50:52.922Z,460.85
2016-12-07T04:51:52.903Z,461.04
2016-12-07T04:52:52.964Z,461.54
2016-12-07T04:53:53.029Z,458.21
2016-12-07T04:54:52.913Z,455.88
2016-12-07T04:55:53.002Z,456.09
2016-12-07T04:56:52.922Z,457.57
2016-12-07T04:57:52.973Z,454.61
2016-12-07T04:58:52.919Z,456.12
2016-12-07T04:59:53.085Z,455.88
2016-12-07T05:00:52.899Z,456.1
2016-12-07T05:01:52.925Z,454.4
2016-12-07T05:02:52.915Z,453.16
2016-12-07T05:03:53.038Z,453.89
2016-12-07T05:04:52.935Z,453.32
2016-12-07T05:05:53.031Z,453.8
2016-12-07T05:06:52.934Z,455.35
2016-12-07T05:07:52.957Z,454.15
2016-12-07T05:08:52.916Z,453.13
2016-12-07T05:09:53.087Z,451.18
2016-12-07T05:10:52.987Z,454.23
2016-12-07T05:11:52.965Z,453.75
2016-12-07T05:12:52.924Z,451.06
2016-12-07T05:13:53.097Z,447.69
2016-12-07T05:14:52.966Z,450.26
2016-12-07T05:15:52.944Z,449.2
2016-12-07T05:16:52.963Z,448.11
2016-12-07T05:17:53.026Z,448.39
2016-12-07T05:18:52.962Z,445.55
2016-12-07T05:19:53.033Z,446.63
2016-12-07T05:20:52.935Z,445.5
2016-12-07T05:21:52.982Z,442.94
2016-12-07T05:22:53.030Z,442.94
2016-12-07T05:23:53.022Z,442.92
2016-12-07T05:24:52.945Z,441.44
2016-12-07T05:25:52.960Z,443.33
2016-12-07T05:26:52.946Z,443.11
2016-12-07T05:27:53.117Z,441.52
2016-12-07T05:28:52.941Z,440.29
2016-12-07T05:29:53.058Z,441.51
2016-12-07T05:30:52.996Z,442.15
2016-12-07T05:31:53.066Z,441.95
2016-12-07T05:32:53.054Z,440.16
2016-12-07T05:33:52.967Z,437.75
2016-12-07T05:34:52.965Z,437.1
2016-12-07T05:35:53.005Z,439.86
2016-12-07T05:36:52.921Z,439.06
2016-12-07T05:37:52.984Z,439.55
2016-12-07T05:38:53.009Z,441.58
2016-12-07T05:39:53.044Z,440.2
2016-12-07T05:40:52.993Z,440.58
2016-12-07T05:41:52.966Z,441.48
2016-12-07T05:42:53.013Z,441.25
2016-12-07T05:43:53.024Z,439.78
2016-12-07T05:44:52.949Z,440
2016-12-07T05:45:53.002Z,437.48
2016-12-07T05:46:52.989Z,436.57
2016-12-07T05:47:53.180Z,437.21
2016-12-07T05:48:52.970Z,435.51
2016-12-07T05:49:52.983Z,436.78
2016-12-07T05:50:53.010Z,436.33
2016-12-07T05:51:53.181Z,435.58
2016-12-07T05:52:52.948Z,437.36
2016-12-07T05:53:53.106Z,437.27
2016-12-07T05:54:53.004Z,435.04
2016-12-07T05:55:53.140Z,433.12
2016-12-07T05:56:52.961Z,433.7
2016-12-07T05:57:53.012Z,430.76
2016-12-07T05:58:53.004Z,432.3
2016-12-07T05:59:53.134Z,433.36
2016-12-07T06:00:52.985Z,428.39
2016-12-07T06:01:52.996Z,426.72
2016-12-07T06:02:53.028Z,429.51
2016-12-07T06:03:52.999Z,431.18
2016-12-07T06:04:52.974Z,431.67
2016-12-07T06:05:53.157Z,430.79
2016-12-07T06:06:53.021Z,432.53
2016-12-07T06:07:53.089Z,431.87
2016-12-07T06:08:52.991Z,432.3
2016-12-07T06:09:53.056Z,431.7
2016-12-07T06:10:53.117Z,431.07
2016-12-07T06:11:53.100Z,429.81
2016-12-07T06:12:53.091Z,432.22
2016-12-07T06:13:53.027Z,430.37
2016-12-07T06:14:53.570Z,433.09
2016-12-07T06:15:53.197Z,432.86
2016-12-07T06:16:53.072Z,432.89
2016-12-07T06:17:53.039Z,434.28
2016-12-07T06:18:53.039Z,433.55
2016-12-07T06:19:53.246Z,431.63
2016-12-07T06:20:53.897Z,432.06
2016-12-07T06:21:53.062Z,431.76
2016-12-07T06:22:52.999Z,432.09
2016-12-07T06:23:53.109Z,432.7
2016-12-07T06:24:53.086Z,431.92
2016-12-07T06:25:53.170Z,430.16
2016-12-07T06:26:53.002Z,429.94
2016-12-07T06:27:53.112Z,427.42
2016-12-07T06:28:53.032Z,429.94
2016-12-07T06:29:53.044Z,431.04
2016-12-07T06:30:53.012Z,428.43
2016-12-07T06:31:53.020Z,429.13
2016-12-07T06:32:53.081Z,428.24
2016-12-07T06:33:53.136Z,429.54
2016-12-07T06:34:53.079Z,430.67
2016-12-07T06:35:53.138Z,431.84
2016-12-07T06:36:53.136Z,429.86
2016-12-07T06:37:53.113Z,428.93
2016-12-07T06:38:53.058Z,426.95
2016-12-07T06:39:53.157Z,430.23
2016-12-07T06:40:53.098Z,427.66
2016-12-07T06:41:53.320Z,426.61
2016-12-07T06:42:53.331Z,427.88
2016-12-07T06:43:53.157Z,431.07
2016-12-07T06:44:53.134Z,431.46
2016-12-07T06:45:53.198Z,433.34
2016-12-07T06:46:53.092Z,429.39
2016-12-07T06:47:53.060Z,430.14
2016-12-07T06:48:53.048Z,429.25
2016-12-07T06:49:53.123Z,429.2
2016-12-07T06:50:53.076Z,429.95
2016-12-07T06:51:53.171Z,429.88
2016-12-07T06:52:53.008Z,430.75
2016-12-07T06:53:53.131Z,430.14
2016-12-07T06:54:53.132Z,434.24
2016-12-07T06:55:53.244Z,433.12
2016-12-07T06:56:53.012Z,436.14
2016-12-07T06:57:53.280Z,435.37
2016-12-07T06:58:53.109Z,435.61
2016-12-07T06:59:53.115Z,437.26
2016-12-07T07:00:53.092Z,440.12
2016-12-07T07:01:53.111Z,438.85
2016-12-07T07:02:53.126Z,441.64
2016-12-07T07:03:53.137Z,441.25
2016-12-07T07:04:53.073Z,441.9
2016-12-07T07:05:53.207Z,441.52
2016-12-07T07:06:53.016Z,441.62
2016-12-07T07:07:53.134Z,443.15
2016-12-07T07:08:53.178Z,444.4
2016-12-07T07:09:53.095Z,444.87
2016-12-07T07:10:53.075Z,446.99
2016-12-07T07:11:53.156Z,448.15
2016-12-07T07:12:53.016Z,448.46
2016-12-07T07:13:53.133Z,449.13
2016-12-07T07:14:53.088Z,448.73
2016-12-07T07:15:53.199Z,450.4
2016-12-07T07:16:53.097Z,451.2
2016-12-07T07:17:53.085Z,453.23
2016-12-07T07:18:53.047Z,454.74
2016-12-07T07:19:53.110Z,456.45
2016-12-07T07:20:53.147Z,455.99
2016-12-07T07:21:53.210Z,455.82
2016-12-07T07:22:53.157Z,457.9
2016-12-07T07:23:53.135Z,459.58
2016-12-07T07:24:53.031Z,458.55
2016-12-07T07:25:53.278Z,458.34
2016-12-07T07:26:53.060Z,457.9
2016-12-07T07:27:53.221Z,459.85
2016-12-07T07:28:53.102Z,462.77
2016-12-07T07:29:53.142Z,461.25
2016-12-07T07:30:53.138Z,462.97
2016-12-07T07:31:53.137Z,462.78
2016-12-07T07:32:53.066Z,463.95
2016-12-07T07:33:53.083Z,465.41
2016-12-07T07:34:53.121Z,466.91
2016-12-07T07:35:53.252Z,465.32
2016-12-07T07:36:53.162Z,465.22
2016-12-07T07:37:53.086Z,464.56
2016-12-07T07:38:53.039Z,467.09
2016-12-07T07:39:53.082Z,470.7
2016-12-07T07:40:53.172Z,469.86
2016-12-07T07:41:53.109Z,474.21
2016-12-07T07:42:53.071Z,474.42
2016-12-07T07:43:53.185Z,472.77
2016-12-07T07:44:53.069Z,471.48
2016-12-07T07:45:53.212Z,469.87
2016-12-07T07:46:53.135Z,473.24
2016-12-07T07:47:53.301Z,474.52
2016-12-07T07:48:53.086Z,475.19
2016-12-07T07:49:53.185Z,477.87
2016-12-07T07:50:53.333Z,478.18
2016-12-07T07:51:53.180Z,479.98
2016-12-07T07:52:53.112Z,480.27
2016-12-07T07:53:53.168Z,479.02
2016-12-07T07:54:53.165Z,481.75
2016-12-07T07:55:53.323Z,484.01
2016-12-07T07:56:53.128Z,484.67
2016-12-07T07:57:53.294Z,485.04
2016-12-07T07:58:53.180Z,485.05
2016-12-07T07:59:53.136Z,486.7
2016-12-07T08:00:53.142Z,486.89
2016-12-07T08:01:53.126Z,489
2016-12-07T08:02:53.122Z,490.71
2016-12-07T08:03:53.228Z,490.37
2016-12-07T08:04:53.053Z,493.29
2016-12-07T08:05:53.318Z,496.84
2016-12-07T08:06:53.095Z,499.62
2016-12-07T08:07:53.178Z,498.58
2016-12-07T08:08:53.144Z,503.39
2016-12-07T08:09:53.179Z,498.67
2016-12-07T08:10:53.133Z,502.37
2016-12-07T08:11:53.127Z,504.01
2016-12-07T08:12:53.084Z,503.45
2016-12-07T08:13:53.188Z,504.32
2016-12-07T08:14:53.088Z,510.26
2016-12-07T08:15:53.262Z,514.1
2016-12-07T08:16:53.163Z,514.35
2016-12-07T08:17:53.207Z,516.15
2016-12-07T08:18:53.181Z,516.59
2016-12-07T08:19:53.149Z,517.95
2016-12-07T08:20:53.152Z,520.01
2016-12-07T08:21:53.186Z,524.43
2016-12-07T08:22:53.366Z,522.22
2016-12-07T08:23:53.124Z,526.13
2016-12-07T08:24:53.197Z,530.87
2016-12-07T08:25:53.321Z,532.18
2016-12-07T08:26:53.168Z,532.92
2016-12-07T08:27:53.390Z,531.83
2016-12-07T08:28:53.323Z,531.14
2016-12-07T08:29:53.215Z,535.36
2016-12-07T08:30:53.227Z,535.04
2016-12-07T08:31:53.297Z,536.49
2016-12-07T08:32:53.301Z,537.23
2016-12-07T08:33:53.258Z,538.12
2016-12-07T08:34:53.193Z,540.82
2016-12-07T08:35:53.265Z,541.08
2016-12-07T08:36:53.194Z,542.57
2016-12-07T08:37:53.375Z,546.31
2016-12-07T08:38:53.236Z,544.34
2016-12-07T08:39:53.229Z,543.47
2016-12-07T08:40:53.225Z,549.61
2016-12-07T08:41:53.183Z,554.35
2016-12-07T08:42:53.143Z,547.06
2016-12-07T08:43:53.227Z,552.18
2016-12-07T08:44:53.195Z,552.7
2016-12-07T08:45:53.233Z,558.95
2016-12-07T08:46:53.312Z,561.38
2016-12-07T08:47:53.436Z,557.81
2016-12-07T08:48:53.297Z,562.51
2016-12-07T08:49:53.275Z,566.35
2016-12-07T08:50:53.242Z,567.31
2016-12-07T08:51:53.153Z,562.31
2016-12-07T08:52:53.080Z,562.37
2016-12-07T08:53:53.207Z,570.92
2016-12-07T08:54:53.138Z,574.82
2016-12-07T08:55:53.219Z,578.54
2016-12-07T08:56:53.227Z,581.26
2016-12-07T08:57:53.863Z,580.88
2016-12-07T08:58:53.166Z,584.18
2016-12-07T08:59:53.211Z,586.18
2016-12-07T09:00:53.251Z,594.72
2016-12-07T09:01:53.195Z,591.71
2016-12-07T09:02:53.194Z,597.44
2016-12-07T09:03:53.296Z,606.06
2016-12-07T09:04:53.195Z,609.55
2016-12-07T09:05:53.295Z,605.82
2016-12-07T09:06:53.205Z,607.83
2016-12-07T09:07:53.336Z,612.13
2016-12-07T09:08:53.197Z,615.2
2016-12-07T09:09:53.296Z,613.1
2016-12-07T09:10:53.218Z,614.83
2016-12-07T09:11:53.187Z,623.68
2016-12-07T09:12:53.164Z,618.76
2016-12-07T09:13:53.191Z,623.25
2016-12-07T09:14:53.156Z,626.1
2016-12-07T09:15:53.275Z,614.79
2016-12-07T09:16:53.181Z,619.77
2016-12-07T09:17:53.294Z,626.47
2016-12-07T09:18:53.148Z,629.27
2016-12-07T09:19:53.223Z,630.77
2016-12-07T09:20:53.245Z,623.81
2016-12-07T09:21:53.240Z,633.02
2016-12-07T09:22:53.259Z,624.43
2016-12-07T09:23:53.234Z,626.09
2016-12-07T09:24:53.243Z,627.53
2016-12-07T09:25:53.308Z,630.02
2016-12-07T09:26:53.234Z,632.04
2016-12-07T09:27:53.242Z,630.8
2016-12-07T09:28:53.907Z,628.58
2016-12-07T09:29:53.280Z,627.68
2016-12-07T09:30:53.163Z,627.83
2016-12-07T09:31:53.275Z,630
2016-12-07T09:32:53.228Z,634.98
2016-12-07T09:33:53.175Z,639.05
2016-12-07T09:34:53.187Z,640.52
2016-12-07T09:35:53.254Z,636.52
2016-12-07T09:36:53.196Z,640.91
2016-12-07T09:37:53.256Z,641.5
2016-12-07T09:38:53.176Z,638.95
2016-12-07T09:39:53.168Z,646.38
2016-12-07T09:40:53.198Z,648.26
2016-12-07T09:41:54.096Z,652.11
2016-12-07T09:42:53.207Z,653.6
2016-12-07T09:43:53.236Z,658.14
2016-12-07T09:44:53.266Z,653.59
2016-12-07T09:45:53.356Z,664.51
2016-12-07T09:46:53.177Z,664
2016-12-07T09:47:53.206Z,670.79
2016-12-07T09:48:53.160Z,679.34
2016-12-07T09:49:53.207Z,674.09
2016-12-07T09:50:53.207Z,666.87
2016-12-07T09:51:53.327Z,681.69
2016-12-07T09:52:53.182Z,679.62
2016-12-07T09:53:53.248Z,686.25
2016-12-07T09:54:53.281Z,691.88
2016-12-07T09:55:53.346Z,693.58
2016-12-07T09:56:53.208Z,689.98
2016-12-07T09:57:53.216Z,700.86
2016-12-07T09:58:53.226Z,707.44
2016-12-07T09:59:53.276Z,702.25
2016-12-07T10:00:53.249Z,710.45
2016-12-07T10:01:53.322Z,712.36
2016-12-07T10:02:53.165Z,709.05
2016-12-07T10:03:53.521Z,709.94
2016-12-07T10:04:53.257Z,711.32
2016-12-07T10:05:53.275Z,710.67
2016-12-07T10:06:53.684Z,714.32
2016-12-07T10:07:53.352Z,710.99
2016-12-07T10:08:53.277Z,717.53
2016-12-07T10:09:53.287Z,718.7
2016-12-07T10:10:53.229Z,725.66
2016-12-07T10:11:53.268Z,733.71
2016-12-07T10:12:53.329Z,735.83
2016-12-07T10:13:53.342Z,733.58
2016-12-07T10:14:53.439Z,734.59
2016-12-07T10:15:53.576Z,742.66
2016-12-07T10:16:53.327Z,742.86
2016-12-07T10:17:53.400Z,753.85
2016-12-07T10:18:53.255Z,754.92
2016-12-07T10:19:53.296Z,750.05
2016-12-07T10:20:53.255Z,749.61
2016-12-07T10:21:53.318Z,747.55
2016-12-07T10:22:53.269Z,748.08
2016-12-07T10:23:53.275Z,759.85
2016-12-07T10:24:53.266Z,758.19
2016-12-07T10:25:53.357Z,763.78
2016-12-07T10:26:53.214Z,775.11
2016-12-07T10:27:53.344Z,768.41
2016-12-07T10:28:53.197Z,774.4
2016-12-07T10:29:53.342Z,781.02
2016-12-07T10:30:53.211Z,768.88
2016-12-07T10:31:53.302Z,781.14
2016-12-07T10:32:53.256Z,792.54
2016-12-07T10:33:53.408Z,796.27
2016-12-07T10:34:53.332Z,800.38
2016-12-07T10:35:53.302Z,802.17
2016-12-07T10:36:53.276Z,806.56
2016-12-07T10:37:53.327Z,810.23
2016-12-07T10:38:53.290Z,813.6
2016-12-07T10:39:53.344Z,814.01
2016-12-07T10:40:53.300Z,816.45
2016-12-07T10:41:53.361Z,820.28
2016-12-07T10:42:53.323Z,824.55
2016-12-07T10:43:53.443Z,826.62
2016-12-07T10:44:53.403Z,827.84
2016-12-07T10:45:53.341Z,826.18
2016-12-07T10:46:53.345Z,838.87
2016-12-07T10:47:53.346Z,834.07
2016-12-07T10:48:53.253Z,832.07
2016-12-07T10:49:53.328Z,842.44
2016-12-07T10:50:53.255Z,851.56
2016-12-07T10:51:53.259Z,849.17
2016-12-07T10:52:53.306Z,855.63
2016-12-07T10:53:53.364Z,868.69
2016-12-07T10:54:53.357Z,868.41
2016-12-07T10:55:53.487Z,870.35
2016-12-07T10:56:53.348Z,880.43
2016-12-07T10:57:53.397Z,885.76
2016-12-07T10:58:53.343Z,887.39
2016-12-07T10:59:53.402Z,887.71
2016-12-07T11:00:53.272Z,890.08
2016-12-07T11:01:53.400Z,883.62
2016-12-07T11:02:53.317Z,893.67
2016-12-07T11:03:53.320Z,890.2
2016-12-07T11:04:53.317Z,893.53
2016-12-07T11:05:53.338Z,895.28
2016-12-07T11:06:53.300Z,899.57
2016-12-07T11:07:53.378Z,896.48
2016-12-07T11:08:53.262Z,896.34
2016-12-07T11:09:53.300Z,898.25
2016-12-07T11:10:53.266Z,899.28
2016-12-07T11:11:53.277Z,903.9
2016-12-07T11:12:53.234Z,905.16
2016-12-07T11:13:53.339Z,906.3
2016-12-07T11:14:53.260Z,893.84
2016-12-07T11:15:53.307Z,900.21
2016-12-07T11:16:53.306Z,908.03
2016-12-07T11:17:53.325Z,908.73
2016-12-07T11:18:53.322Z,915.59
2016-12-07T11:19:53.410Z,910.39
2016-12-07T11:20:53.267Z,907.48
2016-12-07T11:21:53.302Z,903.13
2016-12-07T11:22:53.268Z,913.11
2016-12-07T11:23:53.442Z,916.01
2016-12-07T11:24:53.316Z,922.24
2016-12-07T11:25:53.331Z,918.51
2016-12-07T11:26:53.309Z,909.68
2016-12-07T11:27:53.474Z,900.76
2016-12-07T11:28:53.415Z,908.78
2016-12-07T11:29:53.398Z,910.6
2016-12-07T11:30:53.282Z,900.78
2016-12-07T11:31:53.415Z,908.7
2016-12-07T11:32:53.298Z,900.25
2016-12-07T11:33:53.312Z,906.23
2016-12-07T11:34:53.424Z,901.47
2016-12-07T11:35:53.353Z,900.6
2016-12-07T11:36:53.317Z,894.07
2016-12-07T11:37:53.380Z,890.41
2016-12-07T11:38:53.328Z,893.84
2016-12-07T11:39:53.342Z,882.59
2016-12-07T11:40:53.408Z,887.96
2016-12-07T11:41:53.324Z,894.41
2016-12-07T11:42:53.345Z,887.84
2016-12-07T11:43:53.403Z,880.22
2016-12-07T11:44:53.318Z,889.77
2016-12-07T11:45:53.445Z,891.53
2016-12-07T11:46:53.349Z,888.07
2016-12-07T11:47:53.403Z,888.24
2016-12-07T11:48:53.320Z,883.1
2016-12-07T11:49:53.372Z,895.98
2016-12-07T11:50:53.424Z,889.75
2016-12-07T11:51:53.969Z,894.92
2016-12-07T11:52:53.482Z,893.63
2016-12-07T11:53:53.381Z,897.58
2016-12-07T11:54:53.569Z,897.12
2016-12-07T11:55:53.409Z,896.44
2016-12-07T11:56:53.335Z,896.23
2016-12-07T11:57:53.427Z,891.41
2016-12-07T11:58:53.432Z,884.26
2016-12-07T11:59:53.483Z,886.98
2016-12-07T12:00:53.407Z,890.69
2016-12-07T12:01:53.376Z,890.9
2016-12-07T12:02:53.368Z,882.24
2016-12-07T12:03:53.427Z,887.95
2016-12-07T12:04:53.392Z,886.88
2016-12-07T12:05:53.549Z,878.21
2016-12-07T12:06:53.358Z,878.77
2016-12-07T12:07:53.446Z,878.46
2016-12-07T12:08:53.389Z,870.7
2016-12-07T12:09:53.364Z,875.89
2016-12-07T12:10:53.418Z,877.71
2016-12-07T12:11:53.501Z,879.44
2016-12-07T12:12:53.408Z,883.77
2016-12-07T12:13:53.461Z,881.65
2016-12-07T12:14:53.466Z,869.01
2016-12-07T12:15:53.441Z,871.44
2016-12-07T12:16:53.435Z,871.48
2016-12-07T12:17:53.517Z,866.78
2016-12-07T12:18:53.379Z,870.69
2016-12-07T12:19:53.372Z,876.35
2016-12-07T12:20:53.490Z,875.9
2016-12-07T12:21:54.441Z,878.56
2016-12-07T12:22:53.540Z,882.88
2016-12-07T12:23:53.656Z,885.31
2016-12-07T12:24:53.432Z,882.39
2016-12-07T12:25:53.386Z,890.8
2016-12-07T12:26:53.412Z,900.62
2016-12-07T12:27:53.463Z,899.26
2016-12-07T12:28:53.400Z,894.35
2016-12-07T12:29:53.387Z,901.59
2016-12-07T12:30:53.588Z,914.13
2016-12-07T12:31:53.503Z,920.68